EST,Max TemperatureF,Mean TemperatureF,Min TemperatureF,Max Dew PointF,MeanDew PointF,Min DewpointF,Max Humidity, Mean Humidity, Min Humidity, Max Sea Level PressureIn, Mean Sea Level PressureIn, Min Sea Level PressureIn, Max VisibilityMiles, Mean VisibilityMiles, Min VisibilityMiles, Max Wind SpeedMPH, Mean Wind SpeedMPH, Max Gust SpeedMPH,PrecipitationIn, CloudCover, Events, WindDirDegrees
2012-11-1,51,44,37,36,29,22,86,60,33,29.86,29.83,29.79,10,10,10,14,8,21,0.01,5,,265
2012-11-2,50,42,37,31,29,27,70,59,48,30.09,29.97,29.83,10,10,10,13,6,21,0.00,3,,340
2012-11-3,44,36,28,38,33,28,96,84,62,30.19,30.14,30.10,10,10,5,7,2,,0.10,5,Rain,29
2012-11-4,44,36,30,35,32,28,96,79,65,30.18,30.16,30.13,10,10,10,12,5,,0.00,5,,354
2012-11-5,45,36,26,31,28,25,96,76,53,30.20,30.16,30.12,10,9,4,7,3,,0.00,0,,68
2012-11-6,48,38,28,31,29,25,89,69,46,30.12,30.02,29.92,10,10,8,9,6,,0.00,2,,84
2012-11-7,53,44,35,36,31,29,85,67,43,30.12,29.98,29.89,10,10,7,12,5,,0.00,3,,26
2012-11-8,50,38,26,36,31,27,100,76,52,30.25,30.19,30.12,10,8,2,7,3,,0.00,0,,307
2012-11-9,57,45,33,40,36,30,92,70,49,30.26,30.18,30.13,10,9,7,10,4,,0.00,1,,182
2012-11-10,70,58,46,47,41,37,71,57,38,30.19,30.16,30.10,10,10,10,17,10,23,0.00,1,,190
2012-11-11,66,58,50,45,38,36,63,48,34,30.25,30.16,30.06,10,10,2,22,12,38,0.00,0,,183
2012-11-12,62,47,32,56,43,24,100,89,58,30.40,30.12,30.00,10,7,2,20,13,32,0.87,6,Rain,244
2012-11-13,39,32,25,28,24,22,96,73,53,30.53,30.48,30.41,10,10,10,7,4,,0.00,1,,277
2012-11-14,41,32,23,28,25,20,89,75,55,30.56,30.49,30.40,10,10,8,10,5,,0.00,0,,62
2012-11-15,46,35,24,30,27,23,100,77,50,30.39,30.36,30.33,10,8,4,8,4,,0.00,0,,36
2012-11-16,50,38,26,36,30,25,100,81,54,30.49,30.43,30.37,10,6,2,10,4,,0.00,0,,40
2012-11-17,55,42,28,35,30,27,96,69,33,30.57,30.52,30.47,10,8,2,9,7,,0.00,0,,62
2012-11-18,57,44,32,30,27,24,82,54,30,30.48,30.43,30.38,10,10,10,9,7,,0.00,0,,83
2012-11-19,57,44,32,37,32,26,82,64,46,30.37,30.30,30.19,10,10,10,6,3,,0.00,0,,70
2012-11-20,57,50,43,39,36,32,71,58,41,30.17,30.13,30.07,10,10,10,7,3,,0.00,6,,160
2012-11-21,61,50,39,41,38,35,89,65,42,30.25,30.20,30.13,10,10,7,7,4,,0.00,1,,60
2012-11-22,62,50,39,42,39,36,93,66,44,30.21,30.13,30.00,10,10,8,16,5,23,0.00,0,,191
2012-11-23,57,44,30,49,32,18,89,65,55,30.19,30.02,29.91,10,10,10,21,13,33,0.00,7,,268
2012-11-24,32,30,25,22,20,18,75,68,64,30.23,30.18,30.13,10,10,10,13,7,,0.00,7,,273
2012-11-25,45,36,26,28,24,20,78,63,46,30.11,30.00,29.91,10,10,10,14,6,22,0.00,2,,211
2012-11-26,48,39,30,31,28,24,88,61,38,30.26,30.15,30.04,10,10,10,14,3,,0.00,4,,24
2012-11-27,36,30,25,29,24,20,86,72,59,30.37,30.30,30.23,10,10,7,10,7,,0.00,4,,359
2012-11-28,42,32,21,25,22,19,96,70,45,30.42,30.38,30.32,10,8,4,10,3,,0.00,1,,237
2012-11-29,46,34,23,29,25,20,88,69,47,30.40,30.33,30.25,10,9,6,12,6,16,0.00,0,,183
2012-11-30,55,45,35,39,33,27,76,63,44,30.25,30.21,30.14,10,10,10,15,9,21,0.00,2,,188